EDDL/DUS METAR and TAF weather

Enter ICAO airport designator
Station Type Date Time Source
EDDL METAR 2022/06/30 01:50 UTC NOAA

EDDL 300150Z AUTO VRB02KT CAVOK 18/15 Q1011 NOSIG


Station Type Date Time Source
EDDL Decoded METAR 2022/06/30 01:50 UTC NOAA

Duesseldorf, Germany (EDDL) 51-18N 006-46E 41M
Jun 29, 2022 - 09:50 PM EDT / 2022.06.30 0150 UTC
Wind: Variable at 2 MPH (2 KT):0
Visibility: greater than 7 mile(s):0
Temperature: 64 F (18 C)
Dew Point: 59 F (15 C)
Relative Humidity: 82%
Pressure (altimeter): 29.85 in. Hg (1011 hPa)
ob: EDDL 300150Z AUTO VRB02KT CAVOK 18/15 Q1011 NOSIG
cycle: 2

Station Type Date Time Source
EDDL TAF 2022/06/29 18:30 UTC NOAA

TAF EDDL 291700Z 2918/3024 VRB03KT CAVOK
BECMG 3009/3012 22005KT
BECMG 3015/3018 28009KT
TEMPO 3016/3024 26015G25KT SHRA BKN030CB PROB40
TEMPO 3017/3023 26020G40KT 3000 +TSRA BKN015CB PROB30
TEMPO 3019/3024 BKN010

Example: see airport list